sensor_id;sensor_type;location;lat;lon;timestamp;temperature;humidity
33645;DHT22;19986;48.190;16.366;2023-05-09T00:00:17;13.30;95.50
33645;DHT22;19986;48.190;16.366;2023-05-09T00:02:43;13.20;95.60
33645;DHT22;19986;48.190;16.366;2023-05-09T00:05:12;13.20;95.60
33645;DHT22;19986;48.190;16.366;2023-05-09T00:07:39;13.20;95.70
33645;DHT22;19986;48.190;16.366;2023-05-09T00:10:05;13.20;95.70
33645;DHT22;19986;48.190;16.366;2023-05-09T00:12:31;13.20;95.80
33645;DHT22;19986;48.190;16.366;2023-05-09T00:14:57;13.20;95.80
33645;DHT22;19986;48.190;16.366;2023-05-09T00:17:23;13.20;95.80
33645;DHT22;19986;48.190;16.366;2023-05-09T00:19:50;13.20;95.90
33645;DHT22;19986;48.190;16.366;2023-05-09T00:22:18;13.20;95.90
33645;DHT22;19986;48.190;16.366;2023-05-09T00:24:46;13.10;96.00
33645;DHT22;19986;48.190;16.366;2023-05-09T00:27:12;13.10;96.20
33645;DHT22;19986;48.190;16.366;2023-05-09T00:29:38;13.20;96.10
33645;DHT22;19986;48.190;16.366;2023-05-09T00:32:04;13.20;96.00
33645;DHT22;19986;48.190;16.366;2023-05-09T00:34:30;13.20;96.00
33645;DHT22;19986;48.190;16.366;2023-05-09T00:36:56;13.30;96.10
33645;DHT22;19986;48.190;16.366;2023-05-09T00:39:22;13.30;96.10
33645;DHT22;19986;48.190;16.366;2023-05-09T00:41:47;13.30;96.00
33645;DHT22;19986;48.190;16.366;2023-05-09T00:44:13;13.30;96.00
33645;DHT22;19986;48.190;16.366;2023-05-09T00:46:39;13.30;96.10
33645;DHT22;19986;48.190;16.366;2023-05-09T00:49:05;13.30;96.10
33645;DHT22;19986;48.190;16.366;2023-05-09T00:51:32;13.20;96.10
33645;DHT22;19986;48.190;16.366;2023-05-09T00:53:58;13.30;96.20
33645;DHT22;19986;48.190;16.366;2023-05-09T00:56:24;13.30;96.20
33645;DHT22;19986;48.190;16.366;2023-05-09T00:58:50;13.30;96.10
33645;DHT22;19986;48.190;16.366;2023-05-09T01:01:16;13.30;96.20
33645;DHT22;19986;48.190;16.366;2023-05-09T01:03:42;13.30;96.20
33645;DHT22;19986;48.190;16.366;2023-05-09T01:06:16;13.30;96.20
33645;DHT22;19986;48.190;16.366;2023-05-09T01:11:41;13.20;96.30
33645;DHT22;19986;48.190;16.366;2023-05-09T01:17:15;13.20;96.30
33645;DHT22;19986;48.190;16.366;2023-05-09T01:22:59;13.20;96.30
33645;DHT22;19986;48.190;16.366;2023-05-09T01:28:11;13.10;96.50
33645;DHT22;19986;48.190;16.366;2023-05-09T01:30:38;13.00;96.50
33645;DHT22;19986;48.190;16.366;2023-05-09T01:33:06;12.90;96.60
33645;DHT22;19986;48.190;16.366;2023-05-09T01:35:35;12.90;96.70
33645;DHT22;19986;48.190;16.366;2023-05-09T01:38:09;12.90;96.80
33645;DHT22;19986;48.190;16.366;2023-05-09T01:40:38;12.90;96.90
33645;DHT22;19986;48.190;16.366;2023-05-09T01:43:07;12.90;96.90
33645;DHT22;19986;48.190;16.366;2023-05-09T01:45:35;13.00;96.90
33645;DHT22;19986;48.190;16.366;2023-05-09T01:48:04;13.00;97.00
33645;DHT22;19986;48.190;16.366;2023-05-09T01:50:33;13.00;97.00
33645;DHT22;19986;48.190;16.366;2023-05-09T01:53:00;13.00;97.00
33645;DHT22;19986;48.190;16.366;2023-05-09T01:55:30;13.00;97.00
33645;DHT22;19986;48.190;16.366;2023-05-09T01:57:58;13.10;97.00
33645;DHT22;19986;48.190;16.366;2023-05-09T02:00:24;13.20;97.00
33645;DHT22;19986;48.190;16.366;2023-05-09T02:02:51;13.10;97.00
33645;DHT22;19986;48.190;16.366;2023-05-09T02:05:18;13.10;97.10
33645;DHT22;19986;48.190;16.366;2023-05-09T02:07:46;13.10;97.20
33645;DHT22;19986;48.190;16.366;2023-05-09T02:10:14;13.00;97.30
33645;DHT22;19986;48.190;16.366;2023-05-09T02:12:42;12.90;97.30
33645;DHT22;19986;48.190;16.366;2023-05-09T02:15:09;13.00;97.50
33645;DHT22;19986;48.190;16.366;2023-05-09T02:17:35;13.00;97.50
33645;DHT22;19986;48.190;16.366;2023-05-09T02:20:00;13.00;97.50
33645;DHT22;19986;48.190;16.366;2023-05-09T02:22:27;13.00;97.60
33645;DHT22;19986;48.190;16.366;2023-05-09T02:24:53;13.00;97.70
33645;DHT22;19986;48.190;16.366;2023-05-09T02:27:20;12.90;97.70
33645;DHT22;19986;48.190;16.366;2023-05-09T02:29:48;12.90;97.80
33645;DHT22;19986;48.190;16.366;2023-05-09T02:32:25;12.90;97.90
33645;DHT22;19986;48.190;16.366;2023-05-09T02:34:53;12.80;97.90
33645;DHT22;19986;48.190;16.366;2023-05-09T02:37:21;12.80;98.10
33645;DHT22;19986;48.190;16.366;2023-05-09T02:39:48;12.80;98.10
33645;DHT22;19986;48.190;16.366;2023-05-09T02:42:25;12.70;98.10
33645;DHT22;19986;48.190;16.366;2023-05-09T02:44:52;12.80;98.30
33645;DHT22;19986;48.190;16.366;2023-05-09T02:47:19;12.80;98.30
33645;DHT22;19986;48.190;16.366;2023-05-09T02:49:46;12.80;98.40
33645;DHT22;19986;48.190;16.366;2023-05-09T02:52:13;12.80;98.40
33645;DHT22;19986;48.190;16.366;2023-05-09T02:54:40;12.80;98.40
33645;DHT22;19986;48.190;16.366;2023-05-09T02:57:06;12.70;98.50
33645;DHT22;19986;48.190;16.366;2023-05-09T02:59:32;12.70;98.60
33645;DHT22;19986;48.190;16.366;2023-05-09T03:01:59;12.70;98.60
33645;DHT22;19986;48.190;16.366;2023-05-09T03:04:24;12.70;98.60
33645;DHT22;19986;48.190;16.366;2023-05-09T03:06:51;12.60;98.70
33645;DHT22;19986;48.190;16.366;2023-05-09T03:09:17;12.60;98.80
33645;DHT22;19986;48.190;16.366;2023-05-09T03:11:43;12.60;98.90
33645;DHT22;19986;48.190;16.366;2023-05-09T03:14:10;12.60;99.00
33645;DHT22;19986;48.190;16.366;2023-05-09T03:16:37;12.60;99.00
33645;DHT22;19986;48.190;16.366;2023-05-09T03:19:03;12.60;99.00
33645;DHT22;19986;48.190;16.366;2023-05-09T03:21:30;12.60;99.00
33645;DHT22;19986;48.190;16.366;2023-05-09T03:23:57;12.60;99.00
33645;DHT22;19986;48.190;16.366;2023-05-09T03:26:24;12.60;99.10
33645;DHT22;19986;48.190;16.366;2023-05-09T03:28:51;12.60;99.20
33645;DHT22;19986;48.190;16.366;2023-05-09T03:31:18;12.60;99.30
33645;DHT22;19986;48.190;16.366;2023-05-09T03:33:43;12.50;99.30
33645;DHT22;19986;48.190;16.366;2023-05-09T03:36:09;12.50;99.40
33645;DHT22;19986;48.190;16.366;2023-05-09T03:38:35;12.50;99.50
33645;DHT22;19986;48.190;16.366;2023-05-09T03:41:02;12.50;99.50
33645;DHT22;19986;48.190;16.366;2023-05-09T03:43:29;12.50;99.60
33645;DHT22;19986;48.190;16.366;2023-05-09T03:45:54;12.50;99.50
33645;DHT22;19986;48.190;16.366;2023-05-09T03:48:20;12.60;99.50
33645;DHT22;19986;48.190;16.366;2023-05-09T03:50:46;12.60;99.50
33645;DHT22;19986;48.190;16.366;2023-05-09T03:53:12;12.60;99.50
33645;DHT22;19986;48.190;16.366;2023-05-09T03:55:39;12.60;99.60
33645;DHT22;19986;48.190;16.366;2023-05-09T03:58:06;12.70;99.50
33645;DHT22;19986;48.190;16.366;2023-05-09T04:00:31;12.70;99.40
33645;DHT22;19986;48.190;16.366;2023-05-09T04:02:57;12.70;99.40
33645;DHT22;19986;48.190;16.366;2023-05-09T04:05:24;12.70;99.40
33645;DHT22;19986;48.190;16.366;2023-05-09T04:07:51;12.70;99.40
33645;DHT22;19986;48.190;16.366;2023-05-09T04:10:17;12.80;99.40
33645;DHT22;19986;48.190;16.366;2023-05-09T04:12:43;12.80;99.40
33645;DHT22;19986;48.190;16.366;2023-05-09T04:15:09;12.90;99.30
33645;DHT22;19986;48.190;16.366;2023-05-09T04:17:35;12.80;99.30
33645;DHT22;19986;48.190;16.366;2023-05-09T04:20:01;12.90;99.30
33645;DHT22;19986;48.190;16.366;2023-05-09T04:22:27;13.00;99.30
33645;DHT22;19986;48.190;16.366;2023-05-09T04:24:53;12.90;99.20
33645;DHT22;19986;48.190;16.366;2023-05-09T04:27:19;13.00;99.20
33645;DHT22;19986;48.190;16.366;2023-05-09T04:29:45;13.00;99.10
33645;DHT22;19986;48.190;16.366;2023-05-09T04:32:10;13.00;99.10
33645;DHT22;19986;48.190;16.366;2023-05-09T04:34:36;13.10;99.20
33645;DHT22;19986;48.190;16.366;2023-05-09T04:37:02;13.10;99.10
33645;DHT22;19986;48.190;16.366;2023-05-09T04:39:28;13.20;99.50
33645;DHT22;19986;48.190;16.366;2023-05-09T04:41:54;13.20;99.10
33645;DHT22;19986;48.190;16.366;2023-05-09T04:44:20;13.20;99.10
33645;DHT22;19986;48.190;16.366;2023-05-09T04:46:47;13.30;99.30
33645;DHT22;19986;48.190;16.366;2023-05-09T04:49:15;13.40;99.30
33645;DHT22;19986;48.190;16.366;2023-05-09T04:51:41;13.50;99.10
33645;DHT22;19986;48.190;16.366;2023-05-09T04:54:06;13.70;98.90
33645;DHT22;19986;48.190;16.366;2023-05-09T04:56:32;13.80;98.50
33645;DHT22;19986;48.190;16.366;2023-05-09T04:58:58;13.90;98.10
33645;DHT22;19986;48.190;16.366;2023-05-09T05:01:24;14.00;97.90
33645;DHT22;19986;48.190;16.366;2023-05-09T05:03:50;14.00;97.80
33645;DHT22;19986;48.190;16.366;2023-05-09T05:06:16;14.10;97.80
33645;DHT22;19986;48.190;16.366;2023-05-09T05:08:42;14.20;97.40
33645;DHT22;19986;48.190;16.366;2023-05-09T05:11:08;14.20;97.20
33645;DHT22;19986;48.190;16.366;2023-05-09T05:13:34;14.30;97.10
33645;DHT22;19986;48.190;16.366;2023-05-09T05:15:59;14.40;97.00
33645;DHT22;19986;48.190;16.366;2023-05-09T05:18:25;14.50;97.00
33645;DHT22;19986;48.190;16.366;2023-05-09T05:20:51;14.60;96.70
33645;DHT22;19986;48.190;16.366;2023-05-09T05:23:17;14.70;96.40
33645;DHT22;19986;48.190;16.366;2023-05-09T05:25:44;14.70;96.60
33645;DHT22;19986;48.190;16.366;2023-05-09T05:28:10;14.80;96.50
33645;DHT22;19986;48.190;16.366;2023-05-09T05:30:35;14.90;96.00
33645;DHT22;19986;48.190;16.366;2023-05-09T05:33:01;15.00;95.80
33645;DHT22;19986;48.190;16.366;2023-05-09T05:35:27;15.10;95.60
33645;DHT22;19986;48.190;16.366;2023-05-09T05:37:53;15.00;95.20
33645;DHT22;19986;48.190;16.366;2023-05-09T05:40:19;14.80;95.20
33645;DHT22;19986;48.190;16.366;2023-05-09T05:42:45;14.70;95.20
33645;DHT22;19986;48.190;16.366;2023-05-09T05:45:11;14.60;95.30
33645;DHT22;19986;48.190;16.366;2023-05-09T05:47:37;14.50;95.60
33645;DHT22;19986;48.190;16.366;2023-05-09T05:50:04;14.50;95.60
33645;DHT22;19986;48.190;16.366;2023-05-09T05:52:39;14.40;95.60
33645;DHT22;19986;48.190;16.366;2023-05-09T05:55:06;14.40;95.70
33645;DHT22;19986;48.190;16.366;2023-05-09T05:57:32;14.40;95.60
33645;DHT22;19986;48.190;16.366;2023-05-09T06:00:00;14.40;95.50
33645;DHT22;19986;48.190;16.366;2023-05-09T06:02:26;14.40;95.50
33645;DHT22;19986;48.190;16.366;2023-05-09T06:05:07;14.50;95.20
33645;DHT22;19986;48.190;16.366;2023-05-09T06:07:33;14.40;95.40
33645;DHT22;19986;48.190;16.366;2023-05-09T06:09:59;14.30;95.50
33645;DHT22;19986;48.190;16.366;2023-05-09T06:12:25;14.30;95.50
33645;DHT22;19986;48.190;16.366;2023-05-09T06:14:51;14.40;95.60
33645;DHT22;19986;48.190;16.366;2023-05-09T06:17:17;14.50;95.70
33645;DHT22;19986;48.190;16.366;2023-05-09T06:19:43;14.60;95.80
33645;DHT22;19986;48.190;16.366;2023-05-09T06:22:08;14.60;95.50
33645;DHT22;19986;48.190;16.366;2023-05-09T06:24:34;14.60;95.60
33645;DHT22;19986;48.190;16.366;2023-05-09T06:27:00;14.80;95.40
33645;DHT22;19986;48.190;16.366;2023-05-09T06:29:26;15.00;95.30
33645;DHT22;19986;48.190;16.366;2023-05-09T06:31:52;15.00;95.30
33645;DHT22;19986;48.190;16.366;2023-05-09T06:34:18;15.00;95.30
33645;DHT22;19986;48.190;16.366;2023-05-09T06:36:44;15.10;95.30
33645;DHT22;19986;48.190;16.366;2023-05-09T06:39:10;15.30;95.10
33645;DHT22;19986;48.190;16.366;2023-05-09T06:41:36;15.20;94.90
33645;DHT22;19986;48.190;16.366;2023-05-09T06:44:02;15.20;95.00
33645;DHT22;19986;48.190;16.366;2023-05-09T06:46:28;15.40;95.00
33645;DHT22;19986;48.190;16.366;2023-05-09T06:48:54;15.40;94.80
33645;DHT22;19986;48.190;16.366;2023-05-09T06:51:20;15.40;94.70
33645;DHT22;19986;48.190;16.366;2023-05-09T06:53:46;15.40;94.60
33645;DHT22;19986;48.190;16.366;2023-05-09T06:56:12;15.30;94.50
33645;DHT22;19986;48.190;16.366;2023-05-09T06:58:38;15.40;94.70
33645;DHT22;19986;48.190;16.366;2023-05-09T07:01:04;15.50;94.70
33645;DHT22;19986;48.190;16.366;2023-05-09T07:03:30;15.60;94.40
33645;DHT22;19986;48.190;16.366;2023-05-09T07:05:56;15.50;94.70
33645;DHT22;19986;48.190;16.366;2023-05-09T07:08:24;15.50;94.50
33645;DHT22;19986;48.190;16.366;2023-05-09T07:10:50;15.60;94.40
33645;DHT22;19986;48.190;16.366;2023-05-09T07:13:16;15.70;94.30
33645;DHT22;19986;48.190;16.366;2023-05-09T07:15:42;15.80;94.10
33645;DHT22;19986;48.190;16.366;2023-05-09T07:18:08;15.70;94.20
33645;DHT22;19986;48.190;16.366;2023-05-09T07:20:33;15.80;94.40
33645;DHT22;19986;48.190;16.366;2023-05-09T07:22:59;16.00;94.50
33645;DHT22;19986;48.190;16.366;2023-05-09T07:25:27;16.20;94.10
33645;DHT22;19986;48.190;16.366;2023-05-09T07:27:53;16.30;93.60
33645;DHT22;19986;48.190;16.366;2023-05-09T07:30:19;16.20;93.70
33645;DHT22;19986;48.190;16.366;2023-05-09T07:32:44;16.20;93.70
33645;DHT22;19986;48.190;16.366;2023-05-09T07:35:10;16.40;93.90
33645;DHT22;19986;48.190;16.366;2023-05-09T07:37:36;16.70;93.50
33645;DHT22;19986;48.190;16.366;2023-05-09T07:40:02;17.00;93.30
33645;DHT22;19986;48.190;16.366;2023-05-09T07:42:30;17.30;93.00
33645;DHT22;19986;48.190;16.366;2023-05-09T07:44:57;17.40;92.50
33645;DHT22;19986;48.190;16.366;2023-05-09T07:47:24;17.40;92.40
33645;DHT22;19986;48.190;16.366;2023-05-09T07:49:50;17.40;92.40
33645;DHT22;19986;48.190;16.366;2023-05-09T07:52:16;17.50;92.10
33645;DHT22;19986;48.190;16.366;2023-05-09T07:54:43;17.20;92.20
33645;DHT22;19986;48.190;16.366;2023-05-09T07:57:09;17.10;92.50
33645;DHT22;19986;48.190;16.366;2023-05-09T07:59:34;16.90;92.60
33645;DHT22;19986;48.190;16.366;2023-05-09T08:02:00;16.90;92.70
33645;DHT22;19986;48.190;16.366;2023-05-09T08:04:27;16.90;92.90
33645;DHT22;19986;48.190;16.366;2023-05-09T08:06:52;17.00;92.60
33645;DHT22;19986;48.190;16.366;2023-05-09T08:09:18;17.00;92.50
33645;DHT22;19986;48.190;16.366;2023-05-09T08:11:46;17.10;92.60
33645;DHT22;19986;48.190;16.366;2023-05-09T08:14:11;17.10;92.50
33645;DHT22;19986;48.190;16.366;2023-05-09T08:16:37;17.00;92.80
33645;DHT22;19986;48.190;16.366;2023-05-09T08:19:03;17.10;92.80
33645;DHT22;19986;48.190;16.366;2023-05-09T08:21:29;17.10;92.50
33645;DHT22;19986;48.190;16.366;2023-05-09T08:23:55;17.20;92.50
33645;DHT22;19986;48.190;16.366;2023-05-09T08:26:24;17.30;92.70
33645;DHT22;19986;48.190;16.366;2023-05-09T08:28:51;17.40;92.20
33645;DHT22;19986;48.190;16.366;2023-05-09T08:31:18;17.40;92.20
33645;DHT22;19986;48.190;16.366;2023-05-09T08:33:44;17.30;92.30
33645;DHT22;19986;48.190;16.366;2023-05-09T08:36:10;17.30;92.50
33645;DHT22;19986;48.190;16.366;2023-05-09T08:38:36;17.40;92.50
33645;DHT22;19986;48.190;16.366;2023-05-09T08:41:04;17.40;92.30
33645;DHT22;19986;48.190;16.366;2023-05-09T08:43:32;17.50;92.30
33645;DHT22;19986;48.190;16.366;2023-05-09T08:46:02;17.70;92.30
33645;DHT22;19986;48.190;16.366;2023-05-09T08:48:29;18.00;91.80
33645;DHT22;19986;48.190;16.366;2023-05-09T08:50:56;18.00;91.50
33645;DHT22;19986;48.190;16.366;2023-05-09T08:53:22;17.90;91.60
33645;DHT22;19986;48.190;16.366;2023-05-09T08:55:49;17.70;91.80
33645;DHT22;19986;48.190;16.366;2023-05-09T08:58:15;17.70;92.10
33645;DHT22;19986;48.190;16.366;2023-05-09T09:00:44;17.80;92.60
33645;DHT22;19986;48.190;16.366;2023-05-09T09:03:11;18.10;91.90
33645;DHT22;19986;48.190;16.366;2023-05-09T09:05:41;18.20;91.80
33645;DHT22;19986;48.190;16.366;2023-05-09T09:08:08;18.20;91.50
33645;DHT22;19986;48.190;16.366;2023-05-09T09:10:34;18.10;91.60
33645;DHT22;19986;48.190;16.366;2023-05-09T09:13:01;18.10;91.70
33645;DHT22;19986;48.190;16.366;2023-05-09T09:15:34;18.10;91.90
33645;DHT22;19986;48.190;16.366;2023-05-09T09:18:06;18.30;91.80
33645;DHT22;19986;48.190;16.366;2023-05-09T09:20:39;18.50;91.70
33645;DHT22;19986;48.190;16.366;2023-05-09T09:23:07;18.70;91.50
33645;DHT22;19986;48.190;16.366;2023-05-09T09:25:36;19.30;91.80
33645;DHT22;19986;48.190;16.366;2023-05-09T09:28:03;20.50;90.50
33645;DHT22;19986;48.190;16.366;2023-05-09T09:30:29;21.90;86.60
33645;DHT22;19986;48.190;16.366;2023-05-09T09:32:58;23.20;84.40
33645;DHT22;19986;48.190;16.366;2023-05-09T09:35:24;24.50;81.30
33645;DHT22;19986;48.190;16.366;2023-05-09T09:37:56;25.40;79.40
33645;DHT22;19986;48.190;16.366;2023-05-09T09:40:24;26.50;76.50
33645;DHT22;19986;48.190;16.366;2023-05-09T09:42:51;27.30;76.20
33645;DHT22;19986;48.190;16.366;2023-05-09T09:45:18;28.00;73.40
33645;DHT22;19986;48.190;16.366;2023-05-09T09:47:46;28.40;73.40
33645;DHT22;19986;48.190;16.366;2023-05-09T09:50:16;29.10;71.10
33645;DHT22;19986;48.190;16.366;2023-05-09T09:52:43;28.90;70.10
33645;DHT22;19986;48.190;16.366;2023-05-09T09:55:10;28.80;69.80
33645;DHT22;19986;48.190;16.366;2023-05-09T09:57:37;28.90;69.50
33645;DHT22;19986;48.190;16.366;2023-05-09T10:00:06;28.60;70.30
33645;DHT22;19986;48.190;16.366;2023-05-09T10:02:32;28.70;70.40
33645;DHT22;19986;48.190;16.366;2023-05-09T10:05:08;28.90;70.50
33645;DHT22;19986;48.190;16.366;2023-05-09T10:07:34;29.90;69.80
33645;DHT22;19986;48.190;16.366;2023-05-09T10:10:00;30.70;68.90
33645;DHT22;19986;48.190;16.366;2023-05-09T10:12:35;31.40;66.30
33645;DHT22;19986;48.190;16.366;2023-05-09T10:15:07;30.90;67.30
33645;DHT22;19986;48.190;16.366;2023-05-09T10:17:34;31.00;65.80
33645;DHT22;19986;48.190;16.366;2023-05-09T10:20:04;31.00;66.40
33645;DHT22;19986;48.190;16.366;2023-05-09T10:22:35;30.90;66.30
33645;DHT22;19986;48.190;16.366;2023-05-09T10:25:15;31.20;65.50
33645;DHT22;19986;48.190;16.366;2023-05-09T10:27:44;30.90;66.10
33645;DHT22;19986;48.190;16.366;2023-05-09T10:30:27;30.80;65.80
33645;DHT22;19986;48.190;16.366;2023-05-09T10:33:04;31.20;65.70
33645;DHT22;19986;48.190;16.366;2023-05-09T10:35:36;31.60;65.90
33645;DHT22;19986;48.190;16.366;2023-05-09T10:38:05;31.30;65.50
33645;DHT22;19986;48.190;16.366;2023-05-09T10:43:16;31.60;65.20
33645;DHT22;19986;48.190;16.366;2023-05-09T10:45:42;31.60;64.90
33645;DHT22;19986;48.190;16.366;2023-05-09T10:48:10;31.10;64.90
33645;DHT22;19986;48.190;16.366;2023-05-09T10:50:36;30.90;65.60
33645;DHT22;19986;48.190;16.366;2023-05-09T10:53:06;31.20;65.50
33645;DHT22;19986;48.190;16.366;2023-05-09T10:55:36;31.10;64.40
33645;DHT22;19986;48.190;16.366;2023-05-09T10:58:17;30.70;65.70
33645;DHT22;19986;48.190;16.366;2023-05-09T11:00:49;30.80;65.70
33645;DHT22;19986;48.190;16.366;2023-05-09T11:03:15;31.60;65.50
33645;DHT22;19986;48.190;16.366;2023-05-09T11:05:44;32.40;64.20
33645;DHT22;19986;48.190;16.366;2023-05-09T11:08:29;32.20;63.60
33645;DHT22;19986;48.190;16.366;2023-05-09T11:11:05;32.20;63.30
33645;DHT22;19986;48.190;16.366;2023-05-09T11:13:36;32.20;63.30
33645;DHT22;19986;48.190;16.366;2023-05-09T11:16:04;32.00;63.40
33645;DHT22;19986;48.190;16.366;2023-05-09T11:18:32;31.70;63.60
33645;DHT22;19986;48.190;16.366;2023-05-09T11:20:58;31.30;64.40
33645;DHT22;19986;48.190;16.366;2023-05-09T11:23:32;31.20;64.40
33645;DHT22;19986;48.190;16.366;2023-05-09T11:26:06;31.30;64.30
33645;DHT22;19986;48.190;16.366;2023-05-09T11:28:35;30.90;64.10
33645;DHT22;19986;48.190;16.366;2023-05-09T11:31:11;30.10;65.30
33645;DHT22;19986;48.190;16.366;2023-05-09T11:33:38;29.70;66.20
33645;DHT22;19986;48.190;16.366;2023-05-09T11:39:05;29.20;66.90
33645;DHT22;19986;48.190;16.366;2023-05-09T11:41:47;28.80;67.40
33645;DHT22;19986;48.190;16.366;2023-05-09T11:44:14;28.20;68.50
33645;DHT22;19986;48.190;16.366;2023-05-09T11:46:41;28.20;68.60
33645;DHT22;19986;48.190;16.366;2023-05-09T11:49:07;27.90;68.80
33645;DHT22;19986;48.190;16.366;2023-05-09T11:51:35;27.70;69.00
33645;DHT22;19986;48.190;16.366;2023-05-09T11:54:04;27.50;69.40
33645;DHT22;19986;48.190;16.366;2023-05-09T11:56:32;27.20;69.70
33645;DHT22;19986;48.190;16.366;2023-05-09T11:58:58;27.40;69.60
33645;DHT22;19986;48.190;16.366;2023-05-09T12:01:24;27.30;69.80
33645;DHT22;19986;48.190;16.366;2023-05-09T12:03:52;27.00;70.40
33645;DHT22;19986;48.190;16.366;2023-05-09T12:06:18;26.40;71.40
33645;DHT22;19986;48.190;16.366;2023-05-09T12:08:45;26.20;72.00
33645;DHT22;19986;48.190;16.366;2023-05-09T12:11:11;26.30;72.50
33645;DHT22;19986;48.190;16.366;2023-05-09T12:13:46;26.50;71.90
33645;DHT22;19986;48.190;16.366;2023-05-09T12:16:12;26.70;70.80
33645;DHT22;19986;48.190;16.366;2023-05-09T12:18:51;26.50;71.00
33645;DHT22;19986;48.190;16.366;2023-05-09T12:21:18;25.90;71.60
33645;DHT22;19986;48.190;16.366;2023-05-09T12:23:47;25.40;72.40
33645;DHT22;19986;48.190;16.366;2023-05-09T12:26:13;25.00;73.80
33645;DHT22;19986;48.190;16.366;2023-05-09T12:28:39;24.70;74.60
33645;DHT22;19986;48.190;16.366;2023-05-09T12:31:06;24.40;74.80
33645;DHT22;19986;48.190;16.366;2023-05-09T12:33:32;24.10;75.80
33645;DHT22;19986;48.190;16.366;2023-05-09T12:38:32;24.70;75.50
33645;DHT22;19986;48.190;16.366;2023-05-09T12:41:05;24.40;75.20
33645;DHT22;19986;48.190;16.366;2023-05-09T12:43:36;24.00;76.00
33645;DHT22;19986;48.190;16.366;2023-05-09T12:46:03;23.70;76.80
33645;DHT22;19986;48.190;16.366;2023-05-09T12:48:33;23.40;77.90
33645;DHT22;19986;48.190;16.366;2023-05-09T12:51:04;23.30;77.70
33645;DHT22;19986;48.190;16.366;2023-05-09T12:53:30;23.10;78.20
33645;DHT22;19986;48.190;16.366;2023-05-09T12:56:04;23.10;78.30
33645;DHT22;19986;48.190;16.366;2023-05-09T12:58:31;22.80;79.60
33645;DHT22;19986;48.190;16.366;2023-05-09T13:01:01;22.60;80.10
33645;DHT22;19986;48.190;16.366;2023-05-09T13:03:29;22.80;79.70
33645;DHT22;19986;48.190;16.366;2023-05-09T13:06:05;22.80;79.60
33645;DHT22;19986;48.190;16.366;2023-05-09T13:08:35;22.70;80.00
33645;DHT22;19986;48.190;16.366;2023-05-09T13:11:02;22.90;79.60
33645;DHT22;19986;48.190;16.366;2023-05-09T13:13:28;22.90;79.20
33645;DHT22;19986;48.190;16.366;2023-05-09T13:15:54;22.90;79.50
33645;DHT22;19986;48.190;16.366;2023-05-09T13:18:20;22.80;79.40
33645;DHT22;19986;48.190;16.366;2023-05-09T13:20:49;22.60;80.00
33645;DHT22;19986;48.190;16.366;2023-05-09T13:23:15;22.30;80.10
33645;DHT22;19986;48.190;16.366;2023-05-09T13:25:41;22.00;80.40
33645;DHT22;19986;48.190;16.366;2023-05-09T13:28:07;21.80;81.10
33645;DHT22;19986;48.190;16.366;2023-05-09T13:30:33;21.90;81.50
33645;DHT22;19986;48.190;16.366;2023-05-09T13:32:59;21.90;81.20
33645;DHT22;19986;48.190;16.366;2023-05-09T13:35:25;21.80;81.90
33645;DHT22;19986;48.190;16.366;2023-05-09T13:37:52;21.70;81.50
33645;DHT22;19986;48.190;16.366;2023-05-09T13:40:17;21.90;81.50
33645;DHT22;19986;48.190;16.366;2023-05-09T13:42:43;22.10;81.30
33645;DHT22;19986;48.190;16.366;2023-05-09T13:45:10;22.40;80.60
33645;DHT22;19986;48.190;16.366;2023-05-09T13:47:36;22.50;80.10
33645;DHT22;19986;48.190;16.366;2023-05-09T13:50:02;22.30;80.20
33645;DHT22;19986;48.190;16.366;2023-05-09T13:52:28;22.10;80.80
33645;DHT22;19986;48.190;16.366;2023-05-09T13:54:54;21.80;81.00
33645;DHT22;19986;48.190;16.366;2023-05-09T13:57:20;21.70;81.80
33645;DHT22;19986;48.190;16.366;2023-05-09T13:59:46;21.80;81.60
33645;DHT22;19986;48.190;16.366;2023-05-09T14:02:12;21.90;81.70
33645;DHT22;19986;48.190;16.366;2023-05-09T14:04:37;22.20;81.20
33645;DHT22;19986;48.190;16.366;2023-05-09T14:07:04;22.40;80.50
33645;DHT22;19986;48.190;16.366;2023-05-09T14:09:30;22.50;80.40
33645;DHT22;19986;48.190;16.366;2023-05-09T14:11:56;22.70;79.90
33645;DHT22;19986;48.190;16.366;2023-05-09T14:14:23;22.80;79.60
33645;DHT22;19986;48.190;16.366;2023-05-09T14:16:53;22.80;79.50
33645;DHT22;19986;48.190;16.366;2023-05-09T14:19:19;22.80;79.00
33645;DHT22;19986;48.190;16.366;2023-05-09T14:21:46;22.70;79.20
33645;DHT22;19986;48.190;16.366;2023-05-09T14:24:11;22.80;79.00
33645;DHT22;19986;48.190;16.366;2023-05-09T14:26:38;22.70;79.10
33645;DHT22;19986;48.190;16.366;2023-05-09T14:29:05;22.70;79.40
33645;DHT22;19986;48.190;16.366;2023-05-09T14:31:31;22.70;79.40
33645;DHT22;19986;48.190;16.366;2023-05-09T14:33:57;22.90;79.60
33645;DHT22;19986;48.190;16.366;2023-05-09T14:36:25;23.00;79.20
33645;DHT22;19986;48.190;16.366;2023-05-09T14:38:52;23.20;78.60
33645;DHT22;19986;48.190;16.366;2023-05-09T14:41:18;23.00;78.30
33645;DHT22;19986;48.190;16.366;2023-05-09T14:43:44;22.80;78.90
33645;DHT22;19986;48.190;16.366;2023-05-09T14:46:10;22.70;79.40
33645;DHT22;19986;48.190;16.366;2023-05-09T14:48:36;22.60;79.50
33645;DHT22;19986;48.190;16.366;2023-05-09T14:51:02;22.60;79.70
33645;DHT22;19986;48.190;16.366;2023-05-09T14:53:28;22.70;79.90
33645;DHT22;19986;48.190;16.366;2023-05-09T14:55:54;22.90;79.20
33645;DHT22;19986;48.190;16.366;2023-05-09T14:58:21;22.60;79.40
33645;DHT22;19986;48.190;16.366;2023-05-09T15:00:47;22.60;79.40
33645;DHT22;19986;48.190;16.366;2023-05-09T15:03:13;22.70;79.60
33645;DHT22;19986;48.190;16.366;2023-05-09T15:05:40;22.90;79.60
33645;DHT22;19986;48.190;16.366;2023-05-09T15:08:06;22.90;79.80
33645;DHT22;19986;48.190;16.366;2023-05-09T15:10:32;22.80;80.40
33645;DHT22;19986;48.190;16.366;2023-05-09T15:12:58;22.60;80.60
33645;DHT22;19986;48.190;16.366;2023-05-09T15:15:24;22.50;80.50
33645;DHT22;19986;48.190;16.366;2023-05-09T15:17:51;22.30;80.90
33645;DHT22;19986;48.190;16.366;2023-05-09T15:20:17;22.10;82.40
33645;DHT22;19986;48.190;16.366;2023-05-09T15:22:48;21.90;81.90
33645;DHT22;19986;48.190;16.366;2023-05-09T15:25:15;21.90;82.10
33645;DHT22;19986;48.190;16.366;2023-05-09T15:27:41;22.00;82.20
33645;DHT22;19986;48.190;16.366;2023-05-09T15:30:08;22.00;82.20
33645;DHT22;19986;48.190;16.366;2023-05-09T15:32:37;22.00;82.30
33645;DHT22;19986;48.190;16.366;2023-05-09T15:35:05;22.00;82.20